createdAt,value
2019-03-22T00:00:24.464Z,8.90
2019-03-22T00:01:02.077Z,8.90
2019-03-22T00:01:35.444Z,8.90
2019-03-22T00:02:08.854Z,8.90
2019-03-22T00:02:41.880Z,8.90
2019-03-22T00:03:14.902Z,8.90
2019-03-22T00:03:47.898Z,8.90
2019-03-22T00:04:20.946Z,8.90
2019-03-22T00:04:53.977Z,8.90
2019-03-22T00:05:27.377Z,8.90
2019-03-22T00:06:00.427Z,8.90
2019-03-22T00:06:33.867Z,8.90
2019-03-22T00:07:07.227Z,8.90
2019-03-22T00:07:40.246Z,8.90
2019-03-22T00:08:13.411Z,8.90
2019-03-22T00:08:46.441Z,8.90
2019-03-22T00:09:19.438Z,8.90
2019-03-22T00:09:52.848Z,8.90
2019-03-22T00:10:25.863Z,8.90
2019-03-22T00:10:59.156Z,8.90
2019-03-22T00:11:32.176Z,8.90
2019-03-22T00:12:05.324Z,8.90
2019-03-22T00:12:38.712Z,8.90
2019-03-22T00:13:12.050Z,8.90
2019-03-22T00:13:45.071Z,8.90
2019-03-22T00:14:18.096Z,8.90
2019-03-22T00:14:51.119Z,8.90
2019-03-22T00:15:24.162Z,8.90
2019-03-22T00:15:57.184Z,8.90
2019-03-22T00:16:30.512Z,8.90
2019-03-22T00:17:03.540Z,8.90
2019-03-22T00:17:36.564Z,8.90
2019-03-22T00:18:09.576Z,8.90
2019-03-22T00:18:42.582Z,8.90
2019-03-22T00:19:16.060Z,9.00
2019-03-22T00:19:49.072Z,8.90
2019-03-22T00:20:22.082Z,8.90
2019-03-22T00:20:55.974Z,9.00
2019-03-22T00:21:28.983Z,9.00
2019-03-22T00:22:01.986Z,9.00
2019-03-22T00:22:34.999Z,8.90
2019-03-22T00:23:08.340Z,8.90
2019-03-22T00:23:41.361Z,8.90
2019-03-22T00:24:14.363Z,8.90
2019-03-22T00:24:47.374Z,8.90
2019-03-22T00:25:20.387Z,8.90
2019-03-22T00:25:53.830Z,8.90
2019-03-22T00:26:27.190Z,8.90
2019-03-22T00:27:00.592Z,8.90
2019-03-22T00:27:33.602Z,8.90
2019-03-22T00:28:06.622Z,8.90
2019-03-22T00:28:39.663Z,8.90
2019-03-22T00:29:12.983Z,8.90
2019-03-22T00:29:46.036Z,8.90
2019-03-22T00:30:19.071Z,8.90
2019-03-22T00:30:52.077Z,8.90
2019-03-22T00:31:25.147Z,8.90
2019-03-22T00:31:58.271Z,8.90
2019-03-22T00:32:31.324Z,8.90
2019-03-22T00:33:04.337Z,8.90
2019-03-22T00:33:37.357Z,8.90
2019-03-22T00:34:10.371Z,8.90
2019-03-22T00:34:43.462Z,8.90
2019-03-22T00:35:16.412Z,8.90
2019-03-22T00:35:49.420Z,8.90
2019-03-22T00:36:22.452Z,8.90
2019-03-22T00:36:55.470Z,8.90
2019-03-22T00:37:28.506Z,8.90
2019-03-22T00:38:01.909Z,8.90
2019-03-22T00:38:35.377Z,8.90
2019-03-22T00:39:08.400Z,8.90
2019-03-22T00:39:41.428Z,8.90
2019-03-22T00:40:14.444Z,8.90
2019-03-22T00:40:47.481Z,8.90
2019-03-22T00:41:20.496Z,8.90
2019-03-22T00:41:53.523Z,8.90
2019-03-22T00:42:27.035Z,8.90
2019-03-22T00:43:00.084Z,8.80
2019-03-22T00:43:33.771Z,8.80
2019-03-22T00:44:06.928Z,8.80
2019-03-22T00:44:39.942Z,8.80
2019-03-22T00:45:12.958Z,8.90
2019-03-22T00:45:45.979Z,9.00
2019-03-22T00:46:18.991Z,9.00
2019-03-22T00:46:51.997Z,9.00
2019-03-22T00:47:25.315Z,9.00
2019-03-22T00:47:58.680Z,8.90
2019-03-22T00:48:32.070Z,8.90
2019-03-22T00:49:05.062Z,8.90
2019-03-22T00:49:38.078Z,8.90
2019-03-22T00:50:11.627Z,8.90
2019-03-22T00:50:44.730Z,8.90
2019-03-22T00:51:18.046Z,8.90
2019-03-22T00:51:51.055Z,8.90
2019-03-22T00:52:24.920Z,8.90
2019-03-22T00:52:57.931Z,8.90
2019-03-22T00:53:30.950Z,8.90
2019-03-22T00:54:03.984Z,8.90
2019-03-22T00:54:37.332Z,8.90
2019-03-22T00:55:10.722Z,8.90
2019-03-22T00:55:43.750Z,8.90
2019-03-22T00:56:16.760Z,8.90
2019-03-22T00:56:50.061Z,8.90
2019-03-22T00:57:28.480Z,8.90
2019-03-22T00:57:57.920Z,8.80
2019-03-22T00:58:31.016Z,8.90
2019-03-22T00:59:04.398Z,8.90
2019-03-22T00:59:37.839Z,8.80
2019-03-22T01:00:12.185Z,8.90
2019-03-22T01:00:45.200Z,8.80
2019-03-22T01:01:18.224Z,8.80
2019-03-22T01:01:51.598Z,8.80
2019-03-22T01:02:24.680Z,8.90
2019-03-22T01:02:57.656Z,8.90
2019-03-22T01:03:30.684Z,9.00
2019-03-22T01:04:03.705Z,9.00
2019-03-22T01:04:37.016Z,9.00
2019-03-22T01:05:11.785Z,9.00
2019-03-22T01:05:45.076Z,9.00
2019-03-22T01:06:18.103Z,9.00
2019-03-22T01:06:51.114Z,8.90
2019-03-22T01:07:24.136Z,8.90
2019-03-22T01:07:57.143Z,8.90
2019-03-22T01:08:30.160Z,8.90
2019-03-22T01:09:04.344Z,8.90
2019-03-22T01:09:37.359Z,8.90
2019-03-22T01:10:10.847Z,8.90
2019-03-22T01:10:44.183Z,8.90
2019-03-22T01:11:17.196Z,8.90
2019-03-22T01:11:50.230Z,9.00
2019-03-22T01:12:23.230Z,9.10
2019-03-22T01:12:56.268Z,9.10
2019-03-22T01:13:29.292Z,9.10
2019-03-22T01:14:02.566Z,9.10
2019-03-22T01:14:35.683Z,9.10
2019-03-22T01:15:09.409Z,9.10
2019-03-22T01:15:42.422Z,9.10
2019-03-22T01:16:15.472Z,9.00
2019-03-22T01:16:48.488Z,9.00
2019-03-22T01:17:21.802Z,9.00
2019-03-22T01:17:54.814Z,9.00
2019-03-22T01:18:27.838Z,9.00
2019-03-22T01:19:01.223Z,9.00
2019-03-22T01:19:34.212Z,9.00
2019-03-22T01:20:07.268Z,9.00
2019-03-22T01:20:40.262Z,9.00
2019-03-22T01:21:13.698Z,9.00
2019-03-22T01:21:46.726Z,9.00
2019-03-22T01:22:20.720Z,9.00
2019-03-22T01:22:53.935Z,8.90
2019-03-22T01:23:26.952Z,8.90
2019-03-22T01:24:00.380Z,8.90
2019-03-22T01:24:33.762Z,8.90
2019-03-22T01:25:07.196Z,8.90
2019-03-22T01:25:40.210Z,8.90
2019-03-22T01:26:13.584Z,8.90
2019-03-22T01:26:46.966Z,8.90
2019-03-22T01:27:19.995Z,8.90
2019-03-22T01:27:53.046Z,8.90
2019-03-22T01:28:26.392Z,9.00
2019-03-22T01:28:59.779Z,9.00
2019-03-22T01:29:32.814Z,9.00
2019-03-22T01:30:07.351Z,9.00
2019-03-22T01:30:40.355Z,9.00
2019-03-22T01:31:13.739Z,9.00
2019-03-22T01:31:47.064Z,9.00
2019-03-22T01:32:20.080Z,9.00
2019-03-22T01:32:53.134Z,9.00
2019-03-22T01:33:26.517Z,9.00
2019-03-22T01:33:59.484Z,8.90
2019-03-22T01:34:32.517Z,9.00
2019-03-22T01:35:06.988Z,8.90
2019-03-22T01:35:40.430Z,8.90
2019-03-22T01:36:13.864Z,8.90
2019-03-22T01:36:46.880Z,8.90
2019-03-22T01:37:19.899Z,8.90
2019-03-22T01:37:52.903Z,8.90
2019-03-22T01:38:26.426Z,8.90
2019-03-22T01:38:59.503Z,8.80
2019-03-22T01:39:32.656Z,8.90
2019-03-22T01:40:07.043Z,8.80
2019-03-22T01:40:40.072Z,8.80
2019-03-22T01:41:13.091Z,8.90
2019-03-22T01:41:46.099Z,8.90
2019-03-22T01:42:19.415Z,8.90
2019-03-22T01:42:52.868Z,8.90
2019-03-22T01:43:25.892Z,8.80
2019-03-22T01:43:58.956Z,8.80
2019-03-22T01:44:31.975Z,8.80
2019-03-22T01:45:06.331Z,8.80
2019-03-22T01:45:39.351Z,8.80
2019-03-22T01:46:12.848Z,8.90
2019-03-22T01:46:45.857Z,8.90
2019-03-22T01:47:18.873Z,8.90
2019-03-22T01:47:51.878Z,8.90
2019-03-22T01:48:25.338Z,8.90
2019-03-22T01:48:58.343Z,8.80
2019-03-22T01:49:31.811Z,8.80
2019-03-22T01:50:06.544Z,8.80
2019-03-22T01:50:40.073Z,8.90
2019-03-22T01:51:13.107Z,8.80
2019-03-22T01:51:46.119Z,8.80
2019-03-22T01:52:19.643Z,8.80
2019-03-22T01:52:53.020Z,8.90
2019-03-22T01:53:26.032Z,8.90
2019-03-22T01:53:59.358Z,8.90
2019-03-22T01:54:32.395Z,8.80
2019-03-22T01:55:06.016Z,8.90
2019-03-22T01:55:39.043Z,8.90
2019-03-22T01:56:12.066Z,8.80
2019-03-22T01:56:45.438Z,8.90
2019-03-22T01:57:18.455Z,8.90
2019-03-22T01:57:53.686Z,8.80
2019-03-22T01:58:26.468Z,8.90
2019-03-22T01:58:59.482Z,8.90
2019-03-22T01:59:32.506Z,8.90
2019-03-22T02:00:06.738Z,8.80
2019-03-22T02:00:39.779Z,8.80
2019-03-22T02:01:13.207Z,8.90
2019-03-22T02:01:46.243Z,8.90
2019-03-22T02:02:19.555Z,8.90
2019-03-22T02:02:52.941Z,8.80
2019-03-22T02:03:25.938Z,8.80
2019-03-22T02:03:58.950Z,8.80
2019-03-22T02:04:32.833Z,8.90
2019-03-22T02:05:06.420Z,8.80
2019-03-22T02:05:39.427Z,8.90
2019-03-22T02:06:12.494Z,8.80
2019-03-22T02:06:45.494Z,8.80
2019-03-22T02:07:19.183Z,8.80
2019-03-22T02:07:52.633Z,8.90
2019-03-22T02:08:25.646Z,8.80
2019-03-22T02:08:59.047Z,8.80
2019-03-22T02:09:32.072Z,8.90
2019-03-22T02:10:06.397Z,8.90
2019-03-22T02:10:39.416Z,8.90
2019-03-22T02:11:12.820Z,8.90
2019-03-22T02:11:45.858Z,8.90
2019-03-22T02:12:19.049Z,8.90
2019-03-22T02:12:52.074Z,8.90
2019-03-22T02:13:25.468Z,8.90
2019-03-22T02:13:58.488Z,8.90
2019-03-22T02:14:31.490Z,8.90
2019-03-22T02:15:08.587Z,8.90
2019-03-22T02:15:41.970Z,8.90
2019-03-22T02:16:14.992Z,8.90
2019-03-22T02:16:48.013Z,8.90
2019-03-22T02:17:21.057Z,8.90
2019-03-22T02:17:54.088Z,8.90
2019-03-22T02:18:27.115Z,8.90
2019-03-22T02:19:00.514Z,8.90
2019-03-22T02:19:33.527Z,8.90
2019-03-22T02:20:07.648Z,8.90
2019-03-22T02:20:40.672Z,8.90
2019-03-22T02:21:14.062Z,8.90
2019-03-22T02:21:47.392Z,8.90
2019-03-22T02:22:20.465Z,8.90
2019-03-22T02:22:53.473Z,8.90
2019-03-22T02:23:26.887Z,8.90
2019-03-22T02:23:59.913Z,9.00
2019-03-22T02:24:32.940Z,8.90
2019-03-22T02:25:06.528Z,8.90
2019-03-22T02:25:39.530Z,8.90
2019-03-22T02:26:12.542Z,8.90
2019-03-22T02:26:45.549Z,8.90
2019-03-22T02:27:18.612Z,9.00
2019-03-22T02:28:03.462Z,9.00
2019-03-22T02:28:27.202Z,9.00
2019-03-22T02:29:00.558Z,9.00
2019-03-22T02:29:33.591Z,9.00
2019-03-22T02:30:07.372Z,9.00
2019-03-22T02:30:40.396Z,9.00
2019-03-22T02:31:13.401Z,9.00
2019-03-22T02:31:46.406Z,8.90
2019-03-22T02:32:19.554Z,8.90
2019-03-22T02:32:52.969Z,8.90
2019-03-22T02:33:25.982Z,8.90
2019-03-22T02:33:59.039Z,8.90
2019-03-22T02:34:32.113Z,8.90
2019-03-22T02:35:05.768Z,8.90
2019-03-22T02:35:39.043Z,8.90
2019-03-22T02:36:12.429Z,8.90
2019-03-22T02:36:45.512Z,8.90
2019-03-22T02:37:18.563Z,8.90
2019-03-22T02:37:51.603Z,8.90
2019-03-22T02:38:25.014Z,8.90
2019-03-22T02:38:58.019Z,9.00
2019-03-22T02:39:31.112Z,9.00
2019-03-22T02:40:05.880Z,8.90
2019-03-22T02:40:39.317Z,8.90
2019-03-22T02:41:12.324Z,9.00
2019-03-22T02:41:45.347Z,8.90
2019-03-22T02:42:18.695Z,8.90
2019-03-22T02:42:51.709Z,8.90
2019-03-22T02:43:24.733Z,8.90
2019-03-22T02:43:58.154Z,8.90
2019-03-22T02:44:31.547Z,8.90
2019-03-22T02:45:06.473Z,8.90
2019-03-22T02:45:39.482Z,8.90
2019-03-22T02:46:12.793Z,8.90
2019-03-22T02:46:46.193Z,8.90
2019-03-22T02:47:19.216Z,8.90
2019-03-22T02:47:52.267Z,8.90
2019-03-22T02:48:25.279Z,8.90
2019-03-22T02:48:58.304Z,8.90
2019-03-22T02:49:31.340Z,8.90
2019-03-22T02:50:17.256Z,8.90
2019-03-22T02:50:40.575Z,8.90
2019-03-22T02:51:13.977Z,8.90
2019-03-22T02:51:47.012Z,8.90
2019-03-22T02:52:20.033Z,8.90
2019-03-22T02:52:53.153Z,8.90
2019-03-22T02:53:26.162Z,8.90
2019-03-22T02:53:59.184Z,8.90
2019-03-22T02:54:32.183Z,8.90
2019-03-22T02:55:05.616Z,8.90
2019-03-22T02:55:38.640Z,8.90
2019-03-22T02:56:11.796Z,8.90
2019-03-22T02:56:44.996Z,8.90
2019-03-22T02:57:18.396Z,9.00
2019-03-22T02:57:51.435Z,9.00
2019-03-22T02:58:24.763Z,9.00
2019-03-22T02:58:59.369Z,9.00
2019-03-22T02:59:33.058Z,9.00
2019-03-22T03:00:07.163Z,9.00
2019-03-22T03:00:40.538Z,9.00
2019-03-22T03:01:13.562Z,9.00
2019-03-22T03:01:47.361Z,9.00
2019-03-22T03:02:20.372Z,9.00
2019-03-22T03:02:53.396Z,9.00
2019-03-22T03:03:26.850Z,9.00
2019-03-22T03:03:59.852Z,9.00
2019-03-22T03:04:32.950Z,9.00
2019-03-22T03:05:07.461Z,9.00
2019-03-22T03:05:40.772Z,9.00
2019-03-22T03:06:13.785Z,9.10
2019-03-22T03:06:46.793Z,9.00
2019-03-22T03:07:19.826Z,9.10
2019-03-22T03:07:54.154Z,9.10
2019-03-22T03:08:27.172Z,9.10
2019-03-22T03:09:00.162Z,9.00
2019-03-22T03:09:33.551Z,9.00
2019-03-22T03:10:07.789Z,9.00
2019-03-22T03:10:40.796Z,9.00
2019-03-22T03:11:13.820Z,9.00
2019-03-22T03:11:46.831Z,9.00
2019-03-22T03:12:19.859Z,9.00
2019-03-22T03:12:52.908Z,9.10
2019-03-22T03:13:25.951Z,9.00
2019-03-22T03:13:59.243Z,9.00
2019-03-22T03:14:32.255Z,9.10
2019-03-22T03:15:07.562Z,9.10
2019-03-22T03:15:40.577Z,9.00
2019-03-22T03:16:13.597Z,9.10
2019-03-22T03:16:46.608Z,9.10
2019-03-22T03:17:19.620Z,9.00
2019-03-22T03:17:52.623Z,9.10
2019-03-22T03:18:25.662Z,9.10
2019-03-22T03:18:59.500Z,9.10
2019-03-22T03:19:32.517Z,9.10
2019-03-22T03:20:07.162Z,9.10
2019-03-22T03:20:40.164Z,9.10
2019-03-22T03:21:13.321Z,9.10
2019-03-22T03:21:46.741Z,9.10
2019-03-22T03:22:19.742Z,9.10
2019-03-22T03:22:52.859Z,9.10
2019-03-22T03:23:25.851Z,9.10
2019-03-22T03:23:59.011Z,9.10
2019-03-22T03:24:32.438Z,9.10
2019-03-22T03:25:06.922Z,9.10
2019-03-22T03:25:40.943Z,9.10
2019-03-22T03:26:13.942Z,9.10
2019-03-22T03:26:47.411Z,9.10
2019-03-22T03:27:20.428Z,9.20
2019-03-22T03:27:53.802Z,9.10
2019-03-22T03:28:36.667Z,9.20
2019-03-22T03:29:01.621Z,9.20
2019-03-22T03:29:34.664Z,9.20
2019-03-22T03:30:10.060Z,9.20
2019-03-22T03:30:43.077Z,9.20
2019-03-22T03:31:16.137Z,9.20
2019-03-22T03:31:49.157Z,9.20
2019-03-22T03:32:22.172Z,9.20
2019-03-22T03:32:55.177Z,9.20
2019-03-22T03:33:28.217Z,9.20
2019-03-22T03:34:01.541Z,9.20
2019-03-22T03:34:34.554Z,9.20
2019-03-22T03:35:07.736Z,9.20
2019-03-22T03:35:40.748Z,9.20
2019-03-22T03:36:13.770Z,9.20
2019-03-22T03:36:46.792Z,9.20
2019-03-22T03:37:19.787Z,9.20
2019-03-22T03:37:53.075Z,9.20
2019-03-22T03:38:26.412Z,9.20
2019-03-22T03:38:59.422Z,9.20
2019-03-22T03:39:33.118Z,9.20
2019-03-22T03:40:07.767Z,9.20
2019-03-22T03:40:40.802Z,9.20
2019-03-22T03:41:14.219Z,9.20
2019-03-22T03:41:47.240Z,9.20
2019-03-22T03:42:20.261Z,9.20
2019-03-22T03:42:53.475Z,9.20
2019-03-22T03:43:26.620Z,9.20
2019-03-22T03:43:59.643Z,9.20
2019-03-22T03:44:32.947Z,9.20
2019-03-22T03:45:07.264Z,9.20
2019-03-22T03:45:40.264Z,9.20
2019-03-22T03:46:13.562Z,9.20
2019-03-22T03:46:46.592Z,9.20
2019-03-22T03:47:19.617Z,9.20
2019-03-22T03:47:52.617Z,9.20
2019-03-22T03:48:26.031Z,9.20
2019-03-22T03:48:59.059Z,9.20
2019-03-22T03:49:32.887Z,9.20
2019-03-22T03:50:06.960Z,9.10
2019-03-22T03:50:40.396Z,9.20
2019-03-22T03:51:13.410Z,9.20
2019-03-22T03:51:46.862Z,9.20
2019-03-22T03:52:19.886Z,9.20
2019-03-22T03:52:52.904Z,9.20
2019-03-22T03:53:26.609Z,9.20
2019-03-22T03:53:59.599Z,9.20
2019-03-22T03:54:32.620Z,9.20
2019-03-22T03:55:06.978Z,9.10
2019-03-22T03:55:40.297Z,9.20
2019-03-22T03:56:13.663Z,9.10
2019-03-22T03:56:46.706Z,9.10
2019-03-22T03:57:19.743Z,9.10
2019-03-22T03:57:52.811Z,9.10
2019-03-22T03:58:25.818Z,9.10
2019-03-22T03:58:58.942Z,9.10
2019-03-22T03:59:32.402Z,9.10
2019-03-22T04:00:06.677Z,9.20
2019-03-22T04:00:39.729Z,9.20
2019-03-22T04:01:12.745Z,9.20
2019-03-22T04:01:45.747Z,9.20
2019-03-22T04:02:19.543Z,9.20
2019-03-22T04:02:52.590Z,9.20
2019-03-22T04:03:25.609Z,9.20
2019-03-22T04:03:58.616Z,9.20
2019-03-22T04:04:31.627Z,9.20
2019-03-22T04:05:05.291Z,9.20
2019-03-22T04:05:38.337Z,9.10
2019-03-22T04:06:11.349Z,9.20
2019-03-22T04:06:44.370Z,9.20
2019-03-22T04:07:17.376Z,9.20
2019-03-22T04:07:50.771Z,9.20
2019-03-22T04:08:23.817Z,9.20
2019-03-22T04:08:57.209Z,9.10
2019-03-22T04:09:30.573Z,9.20
2019-03-22T04:10:04.759Z,9.20
2019-03-22T04:10:37.780Z,9.10
2019-03-22T04:11:10.789Z,9.10
2019-03-22T04:11:43.926Z,9.10
2019-03-22T04:12:16.953Z,9.10
2019-03-22T04:12:49.993Z,9.10
2019-03-22T04:13:22.995Z,9.20
2019-03-22T04:13:56.043Z,9.10
2019-03-22T04:14:29.134Z,9.20
2019-03-22T04:15:02.184Z,9.20
2019-03-22T04:15:35.201Z,9.20
2019-03-22T04:16:08.212Z,9.20
2019-03-22T04:16:41.570Z,9.10
2019-03-22T04:17:14.601Z,9.10
2019-03-22T04:17:48.068Z,9.10
2019-03-22T04:18:21.409Z,9.20
2019-03-22T04:18:54.435Z,9.10
2019-03-22T04:19:27.902Z,9.10
2019-03-22T04:20:01.835Z,9.20
2019-03-22T04:20:34.858Z,9.10
2019-03-22T04:21:07.873Z,9.20
2019-03-22T04:21:41.293Z,9.20
2019-03-22T04:22:14.306Z,9.10
2019-03-22T04:22:47.637Z,9.20
2019-03-22T04:23:20.687Z,9.10
2019-03-22T04:23:54.136Z,9.10
2019-03-22T04:24:27.515Z,9.20
2019-03-22T04:25:01.259Z,9.20
2019-03-22T04:25:34.269Z,9.20
2019-03-22T04:26:07.298Z,9.20
2019-03-22T04:26:40.305Z,9.20
2019-03-22T04:27:13.693Z,9.20
2019-03-22T04:27:46.690Z,9.20
2019-03-22T04:28:19.720Z,9.20
2019-03-22T04:29:06.813Z,9.20
2019-03-22T04:29:28.000Z,9.20
2019-03-22T04:30:01.016Z,9.20
2019-03-22T04:30:34.065Z,9.20
2019-03-22T04:31:07.355Z,9.10
2019-03-22T04:31:40.377Z,9.20
2019-03-22T04:32:13.391Z,9.20
2019-03-22T04:32:46.813Z,9.20
2019-03-22T04:33:19.822Z,9.10
2019-03-22T04:33:52.844Z,9.20
2019-03-22T04:34:26.139Z,9.20
2019-03-22T04:34:59.160Z,9.20
2019-03-22T04:35:32.196Z,9.20
2019-03-22T04:36:06.332Z,9.20
2019-03-22T04:36:39.358Z,9.10
2019-03-22T04:37:12.362Z,9.20
2019-03-22T04:37:45.401Z,9.20
2019-03-22T04:38:18.420Z,9.20
2019-03-22T04:38:51.443Z,9.20
2019-03-22T04:39:24.837Z,9.20
2019-03-22T04:39:57.970Z,9.20
2019-03-22T04:40:31.007Z,9.10
2019-03-22T04:41:04.006Z,9.10
2019-03-22T04:41:37.065Z,9.10
2019-03-22T04:42:10.085Z,9.10
2019-03-22T04:42:43.500Z,9.10
2019-03-22T04:43:16.524Z,9.10
2019-03-22T04:43:49.546Z,9.10
2019-03-22T04:44:22.646Z,9.10
2019-03-22T04:44:55.670Z,9.10
2019-03-22T04:45:30.432Z,9.10
2019-03-22T04:46:04.134Z,9.10
2019-03-22T04:46:39.038Z,9.20
2019-03-22T04:47:14.624Z,9.10
2019-03-22T04:47:50.741Z,9.10
2019-03-22T04:48:27.922Z,9.10
2019-03-22T04:49:02.914Z,9.10
2019-03-22T04:49:37.236Z,9.10
2019-03-22T04:50:10.565Z,9.20
2019-03-22T04:50:45.454Z,9.10
2019-03-22T04:51:18.491Z,9.10
2019-03-22T04:51:53.416Z,9.10
2019-03-22T04:52:27.298Z,9.10
2019-03-22T04:53:01.614Z,9.10
2019-03-22T04:53:43.393Z,9.10
2019-03-22T04:54:18.115Z,9.20
2019-03-22T04:54:54.748Z,9.10
2019-03-22T04:55:29.858Z,9.20
2019-03-22T04:56:07.558Z,9.10
2019-03-22T04:56:41.067Z,9.20
2019-03-22T04:57:15.580Z,9.20
2019-03-22T04:57:49.570Z,9.20
2019-03-22T04:58:23.603Z,9.20
2019-03-22T04:58:57.712Z,9.20
2019-03-22T04:59:31.828Z,9.20
2019-03-22T05:00:06.809Z,9.20
2019-03-22T05:00:41.218Z,9.20
2019-03-22T05:01:15.070Z,9.20
2019-03-22T05:01:51.006Z,9.20
2019-03-22T05:02:24.039Z,9.20
2019-03-22T05:02:58.265Z,9.20
2019-03-22T05:03:32.708Z,9.20
2019-03-22T05:04:06.927Z,9.20
2019-03-22T05:04:42.140Z,9.20
2019-03-22T05:05:15.485Z,9.20
2019-03-22T05:05:50.253Z,9.20
2019-03-22T05:06:23.606Z,9.20
2019-03-22T05:06:58.295Z,9.30
2019-03-22T05:07:32.110Z,9.20
2019-03-22T05:08:06.242Z,9.20
2019-03-22T05:08:40.964Z,9.20
2019-03-22T05:09:15.170Z,9.20
2019-03-22T05:09:50.048Z,9.20
2019-03-22T05:10:24.772Z,9.20
2019-03-22T05:11:00.108Z,9.20
2019-03-22T05:11:33.332Z,9.20
2019-03-22T05:12:08.960Z,9.20
2019-03-22T05:12:44.203Z,9.20
2019-03-22T05:13:19.461Z,9.20
2019-03-22T05:13:55.782Z,9.20
2019-03-22T05:14:30.824Z,9.20
2019-03-22T05:15:04.825Z,9.20
2019-03-22T05:15:38.241Z,9.20
2019-03-22T05:16:13.844Z,9.20
2019-03-22T05:16:49.336Z,9.20
2019-03-22T05:17:23.339Z,9.20
2019-03-22T05:17:57.096Z,9.20
2019-03-22T05:18:32.052Z,9.20
2019-03-22T05:19:08.428Z,9.20
2019-03-22T05:19:46.204Z,9.20
2019-03-22T05:20:20.816Z,9.20
2019-03-22T05:20:54.246Z,9.20
2019-03-22T05:21:27.776Z,9.20
2019-03-22T05:22:02.769Z,9.20
2019-03-22T05:22:37.291Z,9.20
2019-03-22T05:23:11.400Z,9.20
2019-03-22T05:23:46.991Z,9.20
2019-03-22T05:24:23.014Z,9.20
2019-03-22T05:24:58.841Z,9.20
2019-03-22T05:25:33.362Z,9.20
2019-03-22T05:26:07.349Z,9.20
2019-03-22T05:26:41.310Z,9.20
2019-03-22T05:27:15.904Z,9.20
2019-03-22T05:27:50.482Z,9.20
2019-03-22T05:28:25.620Z,9.20
2019-03-22T05:28:59.476Z,9.20
2019-03-22T05:29:35.586Z,9.20
2019-03-22T05:30:12.114Z,9.20
2019-03-22T05:31:15.863Z,9.20
2019-03-22T05:32:15.142Z,9.20
2019-03-22T05:32:48.172Z,9.20
2019-03-22T05:33:21.178Z,9.20
2019-03-22T05:33:54.192Z,9.20
2019-03-22T05:34:27.759Z,9.20
2019-03-22T05:35:00.790Z,9.20
2019-03-22T05:35:34.112Z,9.20
2019-03-22T05:36:07.137Z,9.20
2019-03-22T05:36:40.464Z,9.20
2019-03-22T05:37:13.475Z,9.20
2019-03-22T05:37:46.499Z,9.20
2019-03-22T05:38:19.892Z,9.20
2019-03-22T05:38:52.902Z,9.20
2019-03-22T05:39:26.975Z,9.20
2019-03-22T05:40:00.019Z,9.20
2019-03-22T05:40:33.322Z,9.20
2019-03-22T05:41:06.699Z,9.30
2019-03-22T05:41:39.708Z,9.20
2019-03-22T05:42:12.841Z,9.20
2019-03-22T05:42:45.870Z,9.30
2019-03-22T05:43:18.888Z,9.30
2019-03-22T05:43:52.306Z,9.20
2019-03-22T05:44:25.311Z,9.30
2019-03-22T05:44:58.329Z,9.30
2019-03-22T05:45:31.367Z,9.30
2019-03-22T05:46:04.392Z,9.20
2019-03-22T05:46:37.416Z,9.30
2019-03-22T05:47:10.428Z,9.30
2019-03-22T05:47:43.454Z,9.30
2019-03-22T05:48:16.785Z,9.30
2019-03-22T05:48:49.812Z,9.30
2019-03-22T05:49:22.828Z,9.30
2019-03-22T05:49:56.225Z,9.30
2019-03-22T05:50:29.600Z,9.30
2019-03-22T05:51:02.652Z,9.30
2019-03-22T05:51:35.693Z,9.30
2019-03-22T05:52:08.838Z,9.30
2019-03-22T05:52:42.011Z,9.30
2019-03-22T05:53:15.040Z,9.30
2019-03-22T05:53:48.371Z,9.30
2019-03-22T05:54:21.370Z,9.30
2019-03-22T05:54:54.886Z,9.30
2019-03-22T05:55:28.607Z,9.30
2019-03-22T05:56:02.153Z,9.30
2019-03-22T05:56:35.240Z,9.30
2019-03-22T05:57:13.271Z,9.30
2019-03-22T05:57:45.510Z,9.30
2019-03-22T05:58:18.936Z,9.30
2019-03-22T05:58:52.417Z,9.30
2019-03-22T05:59:25.459Z,9.30
2019-03-22T05:59:58.849Z,9.30
2019-03-22T06:00:31.874Z,9.30
2019-03-22T06:01:05.768Z,9.30
2019-03-22T06:01:39.612Z,9.30
2019-03-22T06:02:13.010Z,9.30
2019-03-22T06:02:46.782Z,9.30
2019-03-22T06:03:20.174Z,9.30
2019-03-22T06:03:53.192Z,9.30
2019-03-22T06:04:26.206Z,9.30
2019-03-22T06:04:59.604Z,9.30
2019-03-22T06:05:32.628Z,9.30
2019-03-22T06:06:06.067Z,9.30
2019-03-22T06:06:39.096Z,9.30
2019-03-22T06:07:12.566Z,9.30
2019-03-22T06:07:45.895Z,9.30
2019-03-22T06:08:18.906Z,9.30
2019-03-22T06:08:51.917Z,9.40
2019-03-22T06:09:25.226Z,9.40
2019-03-22T06:09:58.647Z,9.50
2019-03-22T06:10:32.047Z,9.50
2019-03-22T06:11:05.068Z,9.50
2019-03-22T06:11:38.074Z,9.50
2019-03-22T06:12:11.545Z,9.50
2019-03-22T06:12:44.906Z,9.50
2019-03-22T06:13:18.283Z,9.40
2019-03-22T06:13:51.676Z,9.50
2019-03-22T06:14:24.699Z,9.50
2019-03-22T06:14:58.041Z,9.50
2019-03-22T06:15:31.051Z,9.50
2019-03-22T06:16:04.421Z,9.50
2019-03-22T06:16:38.170Z,9.50
2019-03-22T06:17:11.200Z,9.50
2019-03-22T06:17:51.638Z,9.50
2019-03-22T06:18:19.825Z,9.40
2019-03-22T06:18:52.835Z,9.40
2019-03-22T06:19:25.858Z,9.40
2019-03-22T06:19:59.185Z,9.50
2019-03-22T06:20:32.191Z,9.50
2019-03-22T06:21:05.951Z,9.50
2019-03-22T06:21:39.847Z,9.40
2019-03-22T06:22:12.883Z,9.50
2019-03-22T06:22:45.890Z,9.50
2019-03-22T06:23:19.275Z,9.40
2019-03-22T06:23:52.668Z,9.40
2019-03-22T06:24:25.701Z,9.40
2019-03-22T06:24:59.462Z,9.50
2019-03-22T06:25:32.438Z,9.50
2019-03-22T06:26:05.551Z,9.50
2019-03-22T06:26:38.563Z,9.50
2019-03-22T06:27:11.588Z,9.50
2019-03-22T06:27:44.614Z,9.50
2019-03-22T06:28:17.998Z,9.50
2019-03-22T06:28:51.029Z,9.50
2019-03-22T06:29:24.415Z,9.50
2019-03-22T06:29:57.432Z,9.50
2019-03-22T06:30:30.434Z,9.50
2019-03-22T06:31:03.449Z,9.50
2019-03-22T06:31:36.464Z,9.50
2019-03-22T06:32:09.485Z,9.50
2019-03-22T06:32:42.783Z,9.50
2019-03-22T06:33:16.193Z,9.50
2019-03-22T06:33:49.231Z,9.50
2019-03-22T06:34:22.390Z,9.50
2019-03-22T06:34:55.420Z,9.60
2019-03-22T06:35:28.817Z,9.50
2019-03-22T06:36:01.818Z,9.50
2019-03-22T06:36:35.006Z,9.50
2019-03-22T06:37:07.998Z,9.50
2019-03-22T06:37:41.006Z,9.60
2019-03-22T06:38:14.026Z,9.60
2019-03-22T06:38:47.062Z,9.60
2019-03-22T06:39:20.416Z,9.60
2019-03-22T06:39:53.839Z,9.60
2019-03-22T06:40:27.371Z,9.60
2019-03-22T06:41:00.700Z,9.60
2019-03-22T06:41:34.206Z,9.60
2019-03-22T06:42:07.220Z,9.60
2019-03-22T06:42:40.558Z,9.60
2019-03-22T06:43:13.576Z,9.60
2019-03-22T06:43:46.612Z,9.60
2019-03-22T06:44:20.090Z,9.60
2019-03-22T06:44:53.094Z,9.60
2019-03-22T06:45:26.533Z,9.60
2019-03-22T06:45:59.571Z,9.70
2019-03-22T06:46:32.588Z,9.70
2019-03-22T06:47:05.927Z,9.60
2019-03-22T06:47:38.941Z,9.70
2019-03-22T06:48:12.286Z,9.70
2019-03-22T06:48:45.294Z,9.70
2019-03-22T06:49:18.333Z,9.70
2019-03-22T06:49:51.352Z,9.70
2019-03-22T06:50:24.694Z,9.70
2019-03-22T06:50:57.702Z,9.70
2019-03-22T06:51:30.749Z,9.70
2019-03-22T06:52:03.939Z,9.80
2019-03-22T06:52:36.988Z,9.70
2019-03-22T06:53:09.982Z,9.80
2019-03-22T06:53:43.001Z,9.80
2019-03-22T06:54:16.021Z,9.80
2019-03-22T06:54:49.168Z,9.80
2019-03-22T06:55:22.478Z,9.80
2019-03-22T06:55:55.500Z,9.80
2019-03-22T06:56:28.520Z,9.80
2019-03-22T06:57:01.567Z,9.80
2019-03-22T06:57:34.982Z,9.80
2019-03-22T06:58:07.984Z,9.80
2019-03-22T06:58:41.156Z,9.80
2019-03-22T06:59:14.545Z,9.80
2019-03-22T06:59:47.555Z,9.80
2019-03-22T07:00:20.567Z,9.80
2019-03-22T07:00:53.945Z,9.80
2019-03-22T07:01:27.259Z,9.80
2019-03-22T07:02:00.275Z,9.80
2019-03-22T07:02:33.315Z,9.80
2019-03-22T07:03:06.680Z,9.80
2019-03-22T07:03:40.026Z,9.90
2019-03-22T07:04:13.060Z,9.90
2019-03-22T07:04:46.088Z,9.90
2019-03-22T07:05:19.768Z,9.90
2019-03-22T07:05:52.800Z,9.90
2019-03-22T07:06:26.128Z,9.90
2019-03-22T07:06:59.807Z,9.90
2019-03-22T07:07:32.811Z,9.90
2019-03-22T07:08:06.163Z,9.90
2019-03-22T07:08:39.193Z,9.90
2019-03-22T07:09:12.210Z,9.90
2019-03-22T07:09:45.561Z,9.90
2019-03-22T07:10:18.590Z,9.90
2019-03-22T07:10:51.604Z,9.90
2019-03-22T07:11:24.610Z,10.00
2019-03-22T07:11:57.632Z,10.00
2019-03-22T07:12:30.680Z,9.90
2019-03-22T07:13:03.796Z,9.90
2019-03-22T07:13:36.851Z,10.00
2019-03-22T07:14:09.896Z,10.00
2019-03-22T07:14:42.913Z,10.00
2019-03-22T07:15:16.066Z,10.00
2019-03-22T07:15:49.423Z,10.00
2019-03-22T07:16:22.439Z,10.00
2019-03-22T07:16:55.473Z,10.00
2019-03-22T07:17:28.504Z,10.00
2019-03-22T07:18:01.533Z,10.10
2019-03-22T07:18:34.558Z,10.10
2019-03-22T07:19:07.944Z,10.10
2019-03-22T07:19:44.072Z,10.10
2019-03-22T07:20:17.769Z,10.10
2019-03-22T07:20:51.266Z,10.10
2019-03-22T07:21:24.424Z,10.10
2019-03-22T07:21:58.251Z,10.20
2019-03-22T07:22:31.665Z,10.10
2019-03-22T07:23:04.726Z,10.20
2019-03-22T07:23:38.554Z,10.20
2019-03-22T07:24:11.578Z,10.20
2019-03-22T07:24:44.999Z,10.20
2019-03-22T07:25:18.376Z,10.20